sensor_id;sensor_type;location;lat;lon;timestamp;P1;durP1;ratioP1;P2;durP2;ratioP2
38779;SDS011;29273;49.962;9.768;2023-11-21T00:01:35;2.85;;;1.83;;
38779;SDS011;29273;49.962;9.768;2023-11-21T00:04:01;2.88;;;2.13;;
38779;SDS011;29273;49.962;9.768;2023-11-21T00:06:27;3.50;;;2.22;;
38779;SDS011;29273;49.962;9.768;2023-11-21T00:08:52;3.35;;;2.22;;
38779;SDS011;29273;49.962;9.768;2023-11-21T00:11:18;4.03;;;2.13;;
38779;SDS011;29273;49.962;9.768;2023-11-21T00:13:43;3.15;;;2.10;;
38779;SDS011;29273;49.962;9.768;2023-11-21T00:16:09;2.78;;;2.10;;
38779;SDS011;29273;49.962;9.768;2023-11-21T00:18:34;2.15;;;1.80;;
38779;SDS011;29273;49.962;9.768;2023-11-21T00:21:01;3.70;;;1.80;;
38779;SDS011;29273;49.962;9.768;2023-11-21T00:23:26;2.75;;;2.20;;
38779;SDS011;29273;49.962;9.768;2023-11-21T00:25:52;2.17;;;1.50;;
38779;SDS011;29273;49.962;9.768;2023-11-21T00:28:17;3.22;;;1.75;;
38779;SDS011;29273;49.962;9.768;2023-11-21T00:30:42;2.58;;;1.50;;
38779;SDS011;29273;49.962;9.768;2023-11-21T00:33:08;1.98;;;1.30;;
38779;SDS011;29273;49.962;9.768;2023-11-21T00:35:34;2.58;;;1.23;;
38779;SDS011;29273;49.962;9.768;2023-11-21T00:37:59;1.50;;;1.20;;
38779;SDS011;29273;49.962;9.768;2023-11-21T00:40:25;2.50;;;1.35;;
38779;SDS011;29273;49.962;9.768;2023-11-21T00:42:50;1.83;;;1.20;;
38779;SDS011;29273;49.962;9.768;2023-11-21T00:45:15;1.58;;;0.95;;
38779;SDS011;29273;49.962;9.768;2023-11-21T00:47:41;2.38;;;1.30;;
38779;SDS011;29273;49.962;9.768;2023-11-21T00:50:08;1.40;;;1.10;;
38779;SDS011;29273;49.962;9.768;2023-11-21T00:52:34;2.45;;;1.20;;
38779;SDS011;29273;49.962;9.768;2023-11-21T00:55:01;2.13;;;1.10;;
38779;SDS011;29273;49.962;9.768;2023-11-21T00:57:28;1.27;;;0.75;;
38779;SDS011;29273;49.962;9.768;2023-11-21T00:59:53;1.52;;;0.80;;
38779;SDS011;29273;49.962;9.768;2023-11-21T01:02:19;1.05;;;0.68;;
38779;SDS011;29273;49.962;9.768;2023-11-21T01:04:46;1.55;;;0.80;;
38779;SDS011;29273;49.962;9.768;2023-11-21T01:07:13;0.82;;;0.60;;
38779;SDS011;29273;49.962;9.768;2023-11-21T01:09:38;1.95;;;0.60;;
38779;SDS011;29273;49.962;9.768;2023-11-21T01:12:04;1.45;;;0.70;;
38779;SDS011;29273;49.962;9.768;2023-11-21T01:14:30;1.08;;;0.70;;
38779;SDS011;29273;49.962;9.768;2023-11-21T01:16:56;1.35;;;0.70;;
38779;SDS011;29273;49.962;9.768;2023-11-21T01:19:24;1.20;;;0.80;;
38779;SDS011;29273;49.962;9.768;2023-11-21T01:21:49;1.13;;;0.60;;
38779;SDS011;29273;49.962;9.768;2023-11-21T01:24:15;0.77;;;0.70;;
38779;SDS011;29273;49.962;9.768;2023-11-21T01:26:41;1.08;;;0.73;;
38779;SDS011;29273;49.962;9.768;2023-11-21T01:29:07;1.52;;;0.50;;
38779;SDS011;29273;49.962;9.768;2023-11-21T01:31:32;0.88;;;0.65;;
38779;SDS011;29273;49.962;9.768;2023-11-21T01:33:58;1.08;;;0.70;;
38779;SDS011;29273;49.962;9.768;2023-11-21T01:36:29;1.42;;;0.80;;
38779;SDS011;29273;49.962;9.768;2023-11-21T01:38:57;0.98;;;0.70;;
38779;SDS011;29273;49.962;9.768;2023-11-21T01:41:25;1.83;;;0.80;;
38779;SDS011;29273;49.962;9.768;2023-11-21T01:43:52;2.25;;;0.85;;
38779;SDS011;29273;49.962;9.768;2023-11-21T01:46:19;0.95;;;0.63;;
38779;SDS011;29273;49.962;9.768;2023-11-21T01:48:45;1.90;;;0.60;;
38779;SDS011;29273;49.962;9.768;2023-11-21T01:51:14;2.00;;;0.70;;
38779;SDS011;29273;49.962;9.768;2023-11-21T01:53:40;1.27;;;0.80;;
38779;SDS011;29273;49.962;9.768;2023-11-21T01:56:06;1.50;;;0.93;;
38779;SDS011;29273;49.962;9.768;2023-11-21T01:58:33;2.33;;;1.00;;
38779;SDS011;29273;49.962;9.768;2023-11-21T02:00:59;1.25;;;0.80;;
38779;SDS011;29273;49.962;9.768;2023-11-21T02:03:24;0.93;;;0.70;;
38779;SDS011;29273;49.962;9.768;2023-11-21T02:05:52;1.58;;;0.90;;
38779;SDS011;29273;49.962;9.768;2023-11-21T02:08:18;1.27;;;0.80;;
38779;SDS011;29273;49.962;9.768;2023-11-21T02:10:45;0.88;;;0.68;;
38779;SDS011;29273;49.962;9.768;2023-11-21T02:13:10;1.48;;;0.93;;
38779;SDS011;29273;49.962;9.768;2023-11-21T02:15:36;1.30;;;0.90;;
38779;SDS011;29273;49.962;9.768;2023-11-21T02:18:03;1.40;;;0.93;;
38779;SDS011;29273;49.962;9.768;2023-11-21T02:20:31;2.80;;;0.90;;
38779;SDS011;29273;49.962;9.768;2023-11-21T02:23:00;1.63;;;1.08;;
38779;SDS011;29273;49.962;9.768;2023-11-21T02:25:27;1.30;;;0.82;;
38779;SDS011;29273;49.962;9.768;2023-11-21T02:27:57;1.80;;;0.90;;
38779;SDS011;29273;49.962;9.768;2023-11-21T02:30:25;1.45;;;0.80;;
38779;SDS011;29273;49.962;9.768;2023-11-21T02:32:51;1.35;;;0.90;;
38779;SDS011;29273;49.962;9.768;2023-11-21T02:35:22;0.90;;;0.70;;
38779;SDS011;29273;49.962;9.768;2023-11-21T02:37:48;1.38;;;0.80;;
38779;SDS011;29273;49.962;9.768;2023-11-21T02:40:14;1.38;;;0.80;;
38779;SDS011;29273;49.962;9.768;2023-11-21T02:42:49;1.35;;;0.70;;
38779;SDS011;29273;49.962;9.768;2023-11-21T02:45:19;1.17;;;0.82;;
38779;SDS011;29273;49.962;9.768;2023-11-21T02:47:50;1.15;;;0.73;;
38779;SDS011;29273;49.962;9.768;2023-11-21T02:50:15;1.38;;;0.90;;
38779;SDS011;29273;49.962;9.768;2023-11-21T02:52:41;1.40;;;0.80;;
38779;SDS011;29273;49.962;9.768;2023-11-21T02:55:07;1.27;;;0.80;;
38779;SDS011;29273;49.962;9.768;2023-11-21T02:57:33;0.77;;;0.73;;
38779;SDS011;29273;49.962;9.768;2023-11-21T02:59:58;1.05;;;0.70;;
38779;SDS011;29273;49.962;9.768;2023-11-21T03:02:25;1.15;;;0.80;;
38779;SDS011;29273;49.962;9.768;2023-11-21T03:04:51;1.02;;;0.80;;
38779;SDS011;29273;49.962;9.768;2023-11-21T03:07:18;1.60;;;0.80;;
38779;SDS011;29273;49.962;9.768;2023-11-21T03:09:47;1.10;;;1.00;;
38779;SDS011;29273;49.962;9.768;2023-11-21T03:12:12;0.90;;;0.70;;
38779;SDS011;29273;49.962;9.768;2023-11-21T03:14:39;2.17;;;0.68;;
38779;SDS011;29273;49.962;9.768;2023-11-21T03:17:04;1.30;;;0.80;;
38779;SDS011;29273;49.962;9.768;2023-11-21T03:19:31;1.58;;;0.80;;
38779;SDS011;29273;49.962;9.768;2023-11-21T03:21:57;1.42;;;0.98;;
38779;SDS011;29273;49.962;9.768;2023-11-21T03:24:22;2.85;;;0.85;;
38779;SDS011;29273;49.962;9.768;2023-11-21T03:26:48;1.48;;;1.08;;
38779;SDS011;29273;49.962;9.768;2023-11-21T03:29:14;0.93;;;0.85;;
38779;SDS011;29273;49.962;9.768;2023-11-21T03:31:40;2.47;;;1.15;;
38779;SDS011;29273;49.962;9.768;2023-11-21T03:34:06;1.48;;;1.02;;
38779;SDS011;29273;49.962;9.768;2023-11-21T03:36:32;1.73;;;1.08;;
38779;SDS011;29273;49.962;9.768;2023-11-21T03:38:58;3.97;;;1.20;;
38779;SDS011;29273;49.962;9.768;2023-11-21T03:41:23;1.27;;;1.10;;
38779;SDS011;29273;49.962;9.768;2023-11-21T03:43:48;2.30;;;1.30;;
38779;SDS011;29273;49.962;9.768;2023-11-21T03:46:14;3.08;;;1.48;;
38779;SDS011;29273;49.962;9.768;2023-11-21T03:48:39;1.67;;;1.20;;
38779;SDS011;29273;49.962;9.768;2023-11-21T03:51:05;2.72;;;1.40;;
38779;SDS011;29273;49.962;9.768;2023-11-21T03:53:33;1.40;;;1.02;;
38779;SDS011;29273;49.962;9.768;2023-11-21T03:56:01;1.23;;;1.13;;
38779;SDS011;29273;49.962;9.768;2023-11-21T03:58:28;1.50;;;1.27;;
38779;SDS011;29273;49.962;9.768;2023-11-21T04:00:54;2.72;;;1.20;;
38779;SDS011;29273;49.962;9.768;2023-11-21T04:03:19;1.67;;;1.10;;
38779;SDS011;29273;49.962;9.768;2023-11-21T04:05:45;2.20;;;1.40;;
38779;SDS011;29273;49.962;9.768;2023-11-21T04:08:11;1.50;;;1.30;;
38779;SDS011;29273;49.962;9.768;2023-11-21T04:10:36;2.42;;;1.40;;
38779;SDS011;29273;49.962;9.768;2023-11-21T04:13:02;1.58;;;1.40;;
38779;SDS011;29273;49.962;9.768;2023-11-21T04:15:27;1.73;;;1.20;;
38779;SDS011;29273;49.962;9.768;2023-11-21T04:17:53;1.52;;;1.20;;
38779;SDS011;29273;49.962;9.768;2023-11-21T04:20:18;1.50;;;1.38;;
38779;SDS011;29273;49.962;9.768;2023-11-21T04:22:44;1.88;;;1.48;;
38779;SDS011;29273;49.962;9.768;2023-11-21T04:25:10;1.95;;;1.20;;
38779;SDS011;29273;49.962;9.768;2023-11-21T04:27:36;1.27;;;1.17;;
38779;SDS011;29273;49.962;9.768;2023-11-21T04:30:03;2.28;;;1.30;;
38779;SDS011;29273;49.962;9.768;2023-11-21T04:32:30;1.85;;;1.25;;
38779;SDS011;29273;49.962;9.768;2023-11-21T04:34:55;2.13;;;1.42;;
38779;SDS011;29273;49.962;9.768;2023-11-21T04:37:21;2.47;;;1.33;;
38779;SDS011;29273;49.962;9.768;2023-11-21T04:39:46;2.40;;;1.45;;
38779;SDS011;29273;49.962;9.768;2023-11-21T04:42:12;2.42;;;1.50;;
38779;SDS011;29273;49.962;9.768;2023-11-21T04:44:37;1.35;;;1.08;;
38779;SDS011;29273;49.962;9.768;2023-11-21T04:47:06;1.50;;;1.40;;
38779;SDS011;29273;49.962;9.768;2023-11-21T04:49:32;2.60;;;1.70;;
38779;SDS011;29273;49.962;9.768;2023-11-21T04:51:58;1.73;;;1.40;;
38779;SDS011;29273;49.962;9.768;2023-11-21T04:54:24;2.35;;;1.77;;
38779;SDS011;29273;49.962;9.768;2023-11-21T04:56:49;3.33;;;2.03;;
38779;SDS011;29273;49.962;9.768;2023-11-21T04:59:15;2.28;;;1.88;;
38779;SDS011;29273;49.962;9.768;2023-11-21T05:01:40;2.95;;;1.95;;
38779;SDS011;29273;49.962;9.768;2023-11-21T05:04:06;2.70;;;2.13;;
38779;SDS011;29273;49.962;9.768;2023-11-21T05:06:32;4.00;;;2.45;;
38779;SDS011;29273;49.962;9.768;2023-11-21T05:08:58;2.88;;;2.10;;
38779;SDS011;29273;49.962;9.768;2023-11-21T05:11:24;2.83;;;2.08;;
38779;SDS011;29273;49.962;9.768;2023-11-21T05:13:51;2.65;;;2.03;;
38779;SDS011;29273;49.962;9.768;2023-11-21T05:16:16;2.40;;;2.10;;
38779;SDS011;29273;49.962;9.768;2023-11-21T05:18:42;4.38;;;2.15;;
38779;SDS011;29273;49.962;9.768;2023-11-21T05:21:07;5.28;;;2.50;;
38779;SDS011;29273;49.962;9.768;2023-11-21T05:23:33;5.65;;;2.75;;
38779;SDS011;29273;49.962;9.768;2023-11-21T05:25:59;3.58;;;2.55;;
38779;SDS011;29273;49.962;9.768;2023-11-21T05:28:24;5.22;;;2.03;;
38779;SDS011;29273;49.962;9.768;2023-11-21T05:30:50;3.53;;;2.58;;
38779;SDS011;29273;49.962;9.768;2023-11-21T05:33:16;3.72;;;2.58;;
38779;SDS011;29273;49.962;9.768;2023-11-21T05:35:41;3.40;;;2.40;;
38779;SDS011;29273;49.962;9.768;2023-11-21T05:38:07;4.18;;;2.08;;
38779;SDS011;29273;49.962;9.768;2023-11-21T05:40:32;3.28;;;2.17;;
38779;SDS011;29273;49.962;9.768;2023-11-21T05:42:58;3.53;;;2.10;;
38779;SDS011;29273;49.962;9.768;2023-11-21T05:45:24;3.67;;;2.50;;
38779;SDS011;29273;49.962;9.768;2023-11-21T05:47:49;2.78;;;2.28;;
38779;SDS011;29273;49.962;9.768;2023-11-21T05:50:16;3.78;;;2.50;;
38779;SDS011;29273;49.962;9.768;2023-11-21T05:52:42;3.55;;;2.67;;
38779;SDS011;29273;49.962;9.768;2023-11-21T05:55:09;3.28;;;2.13;;
38779;SDS011;29273;49.962;9.768;2023-11-21T05:57:35;3.85;;;2.42;;
38779;SDS011;29273;49.962;9.768;2023-11-21T06:00:08;3.83;;;2.22;;
38779;SDS011;29273;49.962;9.768;2023-11-21T06:02:56;3.65;;;2.40;;
38779;SDS011;29273;49.962;9.768;2023-11-21T06:05:23;4.38;;;2.88;;
38779;SDS011;29273;49.962;9.768;2023-11-21T06:07:50;3.13;;;2.58;;
38779;SDS011;29273;49.962;9.768;2023-11-21T06:10:19;4.43;;;2.67;;
38779;SDS011;29273;49.962;9.768;2023-11-21T06:12:45;4.35;;;2.67;;
38779;SDS011;29273;49.962;9.768;2023-11-21T06:15:11;3.55;;;2.35;;
38779;SDS011;29273;49.962;9.768;2023-11-21T06:17:39;2.38;;;2.17;;
38779;SDS011;29273;49.962;9.768;2023-11-21T06:20:05;2.83;;;2.17;;
38779;SDS011;29273;49.962;9.768;2023-11-21T06:22:38;2.88;;;2.30;;
38779;SDS011;29273;49.962;9.768;2023-11-21T06:25:04;3.20;;;2.05;;
38779;SDS011;29273;49.962;9.768;2023-11-21T06:27:31;4.20;;;2.38;;
38779;SDS011;29273;49.962;9.768;2023-11-21T06:29:58;2.97;;;2.28;;
38779;SDS011;29273;49.962;9.768;2023-11-21T06:32:23;2.35;;;1.92;;
38779;SDS011;29273;49.962;9.768;2023-11-21T06:34:49;2.83;;;1.85;;
38779;SDS011;29273;49.962;9.768;2023-11-21T06:37:15;2.17;;;1.77;;
38779;SDS011;29273;49.962;9.768;2023-11-21T06:39:42;2.67;;;1.77;;
38779;SDS011;29273;49.962;9.768;2023-11-21T06:42:07;2.53;;;1.52;;
38779;SDS011;29273;49.962;9.768;2023-11-21T06:44:32;2.30;;;1.85;;
38779;SDS011;29273;49.962;9.768;2023-11-21T06:46:58;3.80;;;2.00;;
38779;SDS011;29273;49.962;9.768;2023-11-21T06:49:24;3.70;;;1.80;;
38779;SDS011;29273;49.962;9.768;2023-11-21T06:51:49;2.92;;;2.00;;
38779;SDS011;29273;49.962;9.768;2023-11-21T06:54:15;2.33;;;1.80;;
38779;SDS011;29273;49.962;9.768;2023-11-21T06:56:40;2.03;;;1.50;;
38779;SDS011;29273;49.962;9.768;2023-11-21T06:59:06;2.08;;;1.60;;
38779;SDS011;29273;49.962;9.768;2023-11-21T07:01:31;2.17;;;1.75;;
38779;SDS011;29273;49.962;9.768;2023-11-21T07:06:30;1.25;;;1.15;;
38779;SDS011;29273;49.962;9.768;2023-11-21T07:08:55;1.55;;;1.38;;
38779;SDS011;29273;49.962;9.768;2023-11-21T07:11:21;1.67;;;1.30;;
38779;SDS011;29273;49.962;9.768;2023-11-21T07:13:46;2.97;;;1.58;;
38779;SDS011;29273;49.962;9.768;2023-11-21T07:16:12;2.42;;;1.33;;
38779;SDS011;29273;49.962;9.768;2023-11-21T07:18:37;6.50;;;1.55;;
38779;SDS011;29273;49.962;9.768;2023-11-21T07:21:03;1.55;;;1.35;;
38779;SDS011;29273;49.962;9.768;2023-11-21T07:23:29;2.03;;;1.27;;
38779;SDS011;29273;49.962;9.768;2023-11-21T07:25:54;1.60;;;1.38;;
38779;SDS011;29273;49.962;9.768;2023-11-21T07:28:20;3.10;;;1.90;;
38779;SDS011;29273;49.962;9.768;2023-11-21T07:30:45;2.00;;;1.80;;
38779;SDS011;29273;49.962;9.768;2023-11-21T07:33:11;2.10;;;1.90;;
38779;SDS011;29273;49.962;9.768;2023-11-21T07:35:36;2.25;;;1.73;;
38779;SDS011;29273;49.962;9.768;2023-11-21T07:38:02;1.75;;;1.63;;
38779;SDS011;29273;49.962;9.768;2023-11-21T07:40:27;1.90;;;1.50;;
38779;SDS011;29273;49.962;9.768;2023-11-21T07:42:52;1.63;;;1.40;;
38779;SDS011;29273;49.962;9.768;2023-11-21T07:45:18;1.30;;;1.20;;
38779;SDS011;29273;49.962;9.768;2023-11-21T07:47:43;1.50;;;1.40;;
38779;SDS011;29273;49.962;9.768;2023-11-21T07:50:09;1.63;;;1.40;;
38779;SDS011;29273;49.962;9.768;2023-11-21T07:52:35;1.45;;;1.35;;
38779;SDS011;29273;49.962;9.768;2023-11-21T07:55:00;2.10;;;1.50;;
38779;SDS011;29273;49.962;9.768;2023-11-21T07:57:27;1.75;;;1.38;;
38779;SDS011;29273;49.962;9.768;2023-11-21T07:59:52;1.25;;;1.15;;
38779;SDS011;29273;49.962;9.768;2023-11-21T08:02:19;1.17;;;1.08;;
38779;SDS011;29273;49.962;9.768;2023-11-21T08:04:44;1.50;;;1.25;;
38779;SDS011;29273;49.962;9.768;2023-11-21T08:07:10;1.70;;;1.13;;
38779;SDS011;29273;49.962;9.768;2023-11-21T08:09:36;1.30;;;1.20;;
38779;SDS011;29273;49.962;9.768;2023-11-21T08:12:01;1.30;;;1.20;;
38779;SDS011;29273;49.962;9.768;2023-11-21T08:14:28;2.08;;;1.70;;
38779;SDS011;29273;49.962;9.768;2023-11-21T08:16:53;2.33;;;1.25;;
38779;SDS011;29273;49.962;9.768;2023-11-21T08:19:23;1.48;;;1.30;;
38779;SDS011;29273;49.962;9.768;2023-11-21T08:21:50;1.92;;;1.35;;
38779;SDS011;29273;49.962;9.768;2023-11-21T08:24:16;1.50;;;1.38;;
38779;SDS011;29273;49.962;9.768;2023-11-21T08:26:41;1.73;;;1.40;;
38779;SDS011;29273;49.962;9.768;2023-11-21T08:29:08;1.83;;;1.70;;
38779;SDS011;29273;49.962;9.768;2023-11-21T08:31:33;1.70;;;1.58;;
38779;SDS011;29273;49.962;9.768;2023-11-21T08:33:59;1.90;;;1.52;;
38779;SDS011;29273;49.962;9.768;2023-11-21T08:36:27;1.60;;;1.50;;
38779;SDS011;29273;49.962;9.768;2023-11-21T08:38:52;1.77;;;1.50;;
38779;SDS011;29273;49.962;9.768;2023-11-21T08:41:18;2.03;;;1.60;;
38779;SDS011;29273;49.962;9.768;2023-11-21T08:43:47;1.88;;;1.42;;
38779;SDS011;29273;49.962;9.768;2023-11-21T08:46:14;1.83;;;1.63;;
38779;SDS011;29273;49.962;9.768;2023-11-21T08:48:40;1.58;;;1.40;;
38779;SDS011;29273;49.962;9.768;2023-11-21T08:51:06;1.58;;;1.38;;
38779;SDS011;29273;49.962;9.768;2023-11-21T08:53:32;1.95;;;1.55;;
38779;SDS011;29273;49.962;9.768;2023-11-21T08:55:58;1.48;;;1.17;;
38779;SDS011;29273;49.962;9.768;2023-11-21T08:58:25;1.17;;;1.05;;
38779;SDS011;29273;49.962;9.768;2023-11-21T09:00:50;1.85;;;1.38;;
38779;SDS011;29273;49.962;9.768;2023-11-21T09:03:15;2.10;;;1.20;;
38779;SDS011;29273;49.962;9.768;2023-11-21T09:05:41;1.23;;;1.13;;
38779;SDS011;29273;49.962;9.768;2023-11-21T09:08:06;2.03;;;1.48;;
38779;SDS011;29273;49.962;9.768;2023-11-21T09:10:35;1.98;;;1.30;;
38779;SDS011;29273;49.962;9.768;2023-11-21T09:13:04;1.67;;;1.45;;
38779;SDS011;29273;49.962;9.768;2023-11-21T09:15:30;1.73;;;1.35;;
38779;SDS011;29273;49.962;9.768;2023-11-21T09:17:55;2.70;;;1.35;;
38779;SDS011;29273;49.962;9.768;2023-11-21T09:20:21;1.58;;;1.40;;
38779;SDS011;29273;49.962;9.768;2023-11-21T09:22:48;1.35;;;1.25;;
38779;SDS011;29273;49.962;9.768;2023-11-21T09:25:14;1.85;;;1.40;;
38779;SDS011;29273;49.962;9.768;2023-11-21T09:27:40;1.55;;;1.20;;
38779;SDS011;29273;49.962;9.768;2023-11-21T09:30:06;1.30;;;1.20;;
38779;SDS011;29273;49.962;9.768;2023-11-21T09:32:37;1.88;;;1.15;;
38779;SDS011;29273;49.962;9.768;2023-11-21T09:35:06;1.17;;;1.08;;
38779;SDS011;29273;49.962;9.768;2023-11-21T09:37:33;1.15;;;0.95;;
38779;SDS011;29273;49.962;9.768;2023-11-21T09:39:59;1.77;;;1.20;;
38779;SDS011;29273;49.962;9.768;2023-11-21T09:42:38;1.85;;;1.08;;
38779;SDS011;29273;49.962;9.768;2023-11-21T09:45:15;1.98;;;1.30;;
38779;SDS011;29273;49.962;9.768;2023-11-21T09:47:46;1.75;;;1.20;;
38779;SDS011;29273;49.962;9.768;2023-11-21T09:50:12;1.17;;;1.08;;
38779;SDS011;29273;49.962;9.768;2023-11-21T09:52:52;1.40;;;1.10;;
38779;SDS011;29273;49.962;9.768;2023-11-21T09:55:27;1.00;;;0.90;;
38779;SDS011;29273;49.962;9.768;2023-11-21T09:57:57;2.42;;;1.15;;
38779;SDS011;29273;49.962;9.768;2023-11-21T10:00:23;1.33;;;1.08;;
38779;SDS011;29273;49.962;9.768;2023-11-21T10:02:49;1.13;;;1.02;;
38779;SDS011;29273;49.962;9.768;2023-11-21T10:05:16;1.48;;;0.95;;
38779;SDS011;29273;49.962;9.768;2023-11-21T10:07:45;1.08;;;0.98;;
38779;SDS011;29273;49.962;9.768;2023-11-21T10:10:12;0.93;;;0.82;;
38779;SDS011;29273;49.962;9.768;2023-11-21T10:12:40;1.88;;;1.15;;
38779;SDS011;29273;49.962;9.768;2023-11-21T10:15:09;1.27;;;0.93;;
38779;SDS011;29273;49.962;9.768;2023-11-21T10:17:40;1.40;;;1.05;;
38779;SDS011;29273;49.962;9.768;2023-11-21T10:20:13;0.95;;;0.85;;
38779;SDS011;29273;49.962;9.768;2023-11-21T10:22:39;2.17;;;1.23;;
38779;SDS011;29273;49.962;9.768;2023-11-21T10:25:09;1.02;;;0.80;;
38779;SDS011;29273;49.962;9.768;2023-11-21T10:27:36;1.20;;;0.90;;
38779;SDS011;29273;49.962;9.768;2023-11-21T10:30:04;1.48;;;0.75;;
38779;SDS011;29273;49.962;9.768;2023-11-21T10:32:30;1.00;;;0.90;;
38779;SDS011;29273;49.962;9.768;2023-11-21T10:34:59;1.83;;;1.20;;
38779;SDS011;29273;49.962;9.768;2023-11-21T10:37:38;1.25;;;1.00;;
38779;SDS011;29273;49.962;9.768;2023-11-21T10:40:06;1.25;;;0.80;;
38779;SDS011;29273;49.962;9.768;2023-11-21T10:42:39;1.00;;;0.90;;
38779;SDS011;29273;49.962;9.768;2023-11-21T10:45:05;1.92;;;1.20;;
38779;SDS011;29273;49.962;9.768;2023-11-21T10:47:40;2.10;;;0.90;;
38779;SDS011;29273;49.962;9.768;2023-11-21T10:50:06;1.75;;;0.95;;
38779;SDS011;29273;49.962;9.768;2023-11-21T10:52:39;1.77;;;1.23;;
38779;SDS011;29273;49.962;9.768;2023-11-21T10:55:15;1.40;;;0.90;;
38779;SDS011;29273;49.962;9.768;2023-11-21T10:57:42;2.08;;;0.85;;
38779;SDS011;29273;49.962;9.768;2023-11-21T11:00:10;1.35;;;1.00;;
38779;SDS011;29273;49.962;9.768;2023-11-21T11:02:38;1.40;;;0.88;;
38779;SDS011;29273;49.962;9.768;2023-11-21T11:05:05;1.27;;;1.00;;
38779;SDS011;29273;49.962;9.768;2023-11-21T11:07:31;1.27;;;0.80;;
38779;SDS011;29273;49.962;9.768;2023-11-21T11:09:59;2.40;;;0.85;;
38779;SDS011;29273;49.962;9.768;2023-11-21T11:12:25;0.90;;;0.80;;
38779;SDS011;29273;49.962;9.768;2023-11-21T11:14:51;1.73;;;1.20;;
38779;SDS011;29273;49.962;9.768;2023-11-21T11:17:18;2.40;;;0.90;;
38779;SDS011;29273;49.962;9.768;2023-11-21T11:19:46;1.58;;;1.00;;
38779;SDS011;29273;49.962;9.768;2023-11-21T11:22:16;1.35;;;1.05;;
38779;SDS011;29273;49.962;9.768;2023-11-21T11:25:07;0.98;;;0.93;;
38779;SDS011;29273;49.962;9.768;2023-11-21T11:28:00;1.00;;;0.75;;
38779;SDS011;29273;49.962;9.768;2023-11-21T11:33:37;1.42;;;1.00;;
38779;SDS011;29273;49.962;9.768;2023-11-21T11:38:54;1.05;;;0.80;;
38779;SDS011;29273;49.962;9.768;2023-11-21T11:41:39;1.20;;;0.82;;
38779;SDS011;29273;49.962;9.768;2023-11-21T11:44:08;0.75;;;0.75;;
38779;SDS011;29273;49.962;9.768;2023-11-21T11:47:14;0.70;;;0.68;;
38779;SDS011;29273;49.962;9.768;2023-11-21T11:52:54;1.15;;;0.70;;
38779;SDS011;29273;49.962;9.768;2023-11-21T11:55:36;1.00;;;0.70;;
38779;SDS011;29273;49.962;9.768;2023-11-21T11:58:04;1.05;;;0.82;;
38779;SDS011;29273;49.962;9.768;2023-11-21T12:02:59;0.68;;;0.60;;
38779;SDS011;29273;49.962;9.768;2023-11-21T12:05:28;0.68;;;0.55;;
38779;SDS011;29273;49.962;9.768;2023-11-21T12:08:01;1.25;;;0.70;;
38779;SDS011;29273;49.962;9.768;2023-11-21T12:10:28;0.85;;;0.75;;
38779;SDS011;29273;49.962;9.768;2023-11-21T12:12:56;0.90;;;0.60;;
38779;SDS011;29273;49.962;9.768;2023-11-21T12:15:24;0.70;;;0.40;;
38779;SDS011;29273;49.962;9.768;2023-11-21T12:17:51;1.27;;;0.68;;
38779;SDS011;29273;49.962;9.768;2023-11-21T12:20:21;0.70;;;0.50;;
38779;SDS011;29273;49.962;9.768;2023-11-21T12:22:49;1.88;;;0.55;;
38779;SDS011;29273;49.962;9.768;2023-11-21T12:25:16;0.75;;;0.50;;
38779;SDS011;29273;49.962;9.768;2023-11-21T12:27:47;0.50;;;0.40;;
38779;SDS011;29273;49.962;9.768;2023-11-21T12:30:18;0.50;;;0.50;;
38779;SDS011;29273;49.962;9.768;2023-11-21T12:32:47;1.10;;;0.55;;
38779;SDS011;29273;49.962;9.768;2023-11-21T12:35:13;0.70;;;0.57;;
38779;SDS011;29273;49.962;9.768;2023-11-21T12:37:39;1.90;;;0.65;;
38779;SDS011;29273;49.962;9.768;2023-11-21T12:40:08;0.80;;;0.50;;
38779;SDS011;29273;49.962;9.768;2023-11-21T12:42:39;0.47;;;0.43;;
38779;SDS011;29273;49.962;9.768;2023-11-21T12:45:07;1.25;;;0.75;;
38779;SDS011;29273;49.962;9.768;2023-11-21T12:47:46;1.60;;;0.70;;
38779;SDS011;29273;49.962;9.768;2023-11-21T12:50:14;0.98;;;0.63;;
38779;SDS011;29273;49.962;9.768;2023-11-21T12:52:49;1.23;;;0.70;;
38779;SDS011;29273;49.962;9.768;2023-11-21T12:55:19;1.00;;;0.77;;
38779;SDS011;29273;49.962;9.768;2023-11-21T12:57:49;1.42;;;0.60;;
38779;SDS011;29273;49.962;9.768;2023-11-21T13:00:31;1.13;;;0.60;;
38779;SDS011;29273;49.962;9.768;2023-11-21T13:02:59;1.08;;;0.70;;
38779;SDS011;29273;49.962;9.768;2023-11-21T13:05:29;1.80;;;0.75;;
38779;SDS011;29273;49.962;9.768;2023-11-21T13:07:59;1.63;;;1.13;;
38779;SDS011;29273;49.962;9.768;2023-11-21T13:10:28;2.70;;;0.95;;
38779;SDS011;29273;49.962;9.768;2023-11-21T13:12:57;1.60;;;0.77;;
38779;SDS011;29273;49.962;9.768;2023-11-21T13:15:24;0.95;;;0.82;;
38779;SDS011;29273;49.962;9.768;2023-11-21T13:17:50;1.08;;;0.82;;
38779;SDS011;29273;49.962;9.768;2023-11-21T13:20:17;2.25;;;0.88;;
38779;SDS011;29273;49.962;9.768;2023-11-21T13:22:48;2.00;;;1.00;;
38779;SDS011;29273;49.962;9.768;2023-11-21T13:25:14;1.77;;;0.90;;
38779;SDS011;29273;49.962;9.768;2023-11-21T13:27:43;1.98;;;1.13;;
38779;SDS011;29273;49.962;9.768;2023-11-21T13:30:10;2.28;;;1.00;;
38779;SDS011;29273;49.962;9.768;2023-11-21T13:32:43;0.85;;;0.80;;
38779;SDS011;29273;49.962;9.768;2023-11-21T13:35:14;1.15;;;0.80;;
38779;SDS011;29273;49.962;9.768;2023-11-21T13:37:52;1.05;;;0.80;;
38779;SDS011;29273;49.962;9.768;2023-11-21T13:40:21;3.60;;;0.82;;
38779;SDS011;29273;49.962;9.768;2023-11-21T13:42:54;1.10;;;1.00;;
38779;SDS011;29273;49.962;9.768;2023-11-21T13:45:24;2.15;;;1.05;;
38779;SDS011;29273;49.962;9.768;2023-11-21T13:47:51;1.35;;;1.00;;
38779;SDS011;29273;49.962;9.768;2023-11-21T13:50:23;1.92;;;1.10;;
38779;SDS011;29273;49.962;9.768;2023-11-21T13:52:54;1.30;;;0.80;;
38779;SDS011;29273;49.962;9.768;2023-11-21T13:55:19;1.60;;;0.80;;
38779;SDS011;29273;49.962;9.768;2023-11-21T13:57:48;1.33;;;0.80;;
38779;SDS011;29273;49.962;9.768;2023-11-21T14:00:16;1.35;;;0.95;;
38779;SDS011;29273;49.962;9.768;2023-11-21T14:03:11;1.20;;;0.85;;
38779;SDS011;29273;49.962;9.768;2023-11-21T14:05:49;1.45;;;0.93;;
38779;SDS011;29273;49.962;9.768;2023-11-21T14:08:19;1.50;;;0.93;;
38779;SDS011;29273;49.962;9.768;2023-11-21T14:10:46;1.77;;;1.00;;
38779;SDS011;29273;49.962;9.768;2023-11-21T14:13:20;1.63;;;1.05;;
38779;SDS011;29273;49.962;9.768;2023-11-21T14:15:48;2.78;;;1.20;;
38779;SDS011;29273;49.962;9.768;2023-11-21T14:18:25;1.85;;;1.15;;
38779;SDS011;29273;49.962;9.768;2023-11-21T14:21:06;2.47;;;1.30;;
38779;SDS011;29273;49.962;9.768;2023-11-21T14:23:33;2.22;;;1.30;;
38779;SDS011;29273;49.962;9.768;2023-11-21T14:26:01;2.15;;;1.30;;
38779;SDS011;29273;49.962;9.768;2023-11-21T14:28:26;2.83;;;1.35;;
38779;SDS011;29273;49.962;9.768;2023-11-21T14:30:52;2.35;;;1.15;;
38779;SDS011;29273;49.962;9.768;2023-11-21T14:33:18;3.50;;;1.20;;
38779;SDS011;29273;49.962;9.768;2023-11-21T14:35:43;1.88;;;1.15;;
38779;SDS011;29273;49.962;9.768;2023-11-21T14:38:09;1.77;;;1.02;;
38779;SDS011;29273;49.962;9.768;2023-11-21T14:40:35;1.90;;;1.08;;
38779;SDS011;29273;49.962;9.768;2023-11-21T14:43:02;1.45;;;1.00;;
38779;SDS011;29273;49.962;9.768;2023-11-21T14:45:31;2.15;;;0.95;;
38779;SDS011;29273;49.962;9.768;2023-11-21T14:47:58;2.28;;;1.20;;
38779;SDS011;29273;49.962;9.768;2023-11-21T14:50:29;2.17;;;1.30;;
38779;SDS011;29273;49.962;9.768;2023-11-21T14:53:14;2.08;;;1.25;;
38779;SDS011;29273;49.962;9.768;2023-11-21T14:55:39;2.90;;;1.27;;
38779;SDS011;29273;49.962;9.768;2023-11-21T14:58:05;2.30;;;1.20;;
38779;SDS011;29273;49.962;9.768;2023-11-21T15:00:30;1.92;;;1.10;;
38779;SDS011;29273;49.962;9.768;2023-11-21T15:03:06;2.70;;;1.10;;
38779;SDS011;29273;49.962;9.768;2023-11-21T15:05:34;2.72;;;1.42;;